Terminal Aerodrome Forecast
Issued by NWS

Current Version | Previous Version | Text Only | Print | Product List | Glossary On
Versions: 1 2 3 4 5 6 7 8 9 10 11 12 13 14 15 16 17 18 19 20 21
000
FTUS41 KBGM 280858 AAA
TAFITH
TAF AMD
KITH 280858Z 2809/2906 VRB03KT P6SM SKC
      TEMPO 2809/2812 3SM BR
     FM281400 30005KT P6SM FEW045
     FM290000 VRB03KT P6SM SKC=

USA.gov is the U.S. government's official web portal to all federal, state and local government web resources and services.